Latest Weather Observations for Cape Moreton

IDQ60801

Issued at 11:02 am EST Sunday 19 April 2015 (issued every 30 minutes, with the page automatically refreshed every 10 minutes)

About weather observations | Map of weather stations | Latest weather observations for QLD | Other Formats
Station Details ID: 040043 Name: CAPE MORETON LIGHTHOUSE Lat: -27.03 Lon: 153.47 Height: 99.9 m
Data from the previous 72 hours. | See also: Recent months at Cape Moreton
Date/Time
EST
Temp
°C
App
Temp
°C
Dew
Point
Rel
Hum
%
Delta-T
°C
Wind Press
QNH
hPa
Press
MSL
hPa
Rain
since 9 am
mm
Dir
 
Spd
km/h
Gust
km/h
Spd
kts
Gust
kts
19/11:00am 25.4 27.1 20.2 73 3.4 WNW 11 17 6 9 1019.1 1018.7 0.0
19/10:30am 23.8 25.0 19.1 75 3.0 WNW 11 17 6 9 1019.5 1019.1 0.0
19/10:00am 25.3 27.0 19.4 70 3.8 NW 9 15 5 8 1019.7 1019.3 0.0
19/09:30am 23.7 24.7 19.4 77 2.8 W 13 19 7 10 1019.8 1019.4 0.0
19/09:00am 24.0 25.9 19.7 77 2.8 W 9 13 5 7 1019.7 1019.3 0.0
19/08:30am 23.5 24.5 19.4 78 2.6 W 13 15 7 8 1019.8 1019.4 0.0
19/08:00am 24.3 25.8 19.8 76 2.9 WNW 11 17 6 9 1019.6 1019.2 0.0
19/07:30am 23.4 24.4 19.5 79 2.5 WNW 13 17 7 9 1019.4 1019.0 0.0
19/07:00am 23.0 23.8 19.8 82 2.1 WNW 15 22 8 12 1019.2 1018.8 0.0
19/06:30am 22.8 23.8 19.4 81 2.2 NW 13 15 7 8 1018.8 1018.4 0.0
19/06:00am 23.1 23.0 18.8 77 2.7 N 17 20 9 11 1018.6 1018.2 0.0
19/05:30am 23.2 23.1 18.7 76 2.9 N 17 20 9 11 1018.5 1018.1 0.0
19/05:00am 22.9 22.6 19.1 79 2.4 N 19 24 10 13 1018.3 1017.9 0.0
19/04:30am 23.5 22.7 19.2 77 2.8 NNE 22 28 12 15 1018.2 1017.8 0.0
19/04:00am 23.5 22.6 19.0 76 2.9 NNE 22 32 12 17 1018.1 1017.7 0.0
19/03:30am 23.6 22.6 18.9 75 3.0 NNE 22 30 12 16 1018.4 1018.0 0.0
19/03:00am 23.7 22.3 18.8 74 3.1 NNE 24 32 13 17 1018.5 1018.1 0.0
19/02:30am 23.7 22.3 18.8 74 3.1 NNE 24 32 13 17 1018.7 1018.3 0.0
19/02:00am 23.6 22.5 18.7 74 3.1 NE 22 32 12 17 1019.0 1018.6 0.0
19/01:30am 23.4 23.0 19.3 78 2.6 NE 20 24 11 13 1019.4 1019.0 0.0
19/01:00am 23.0 21.9 18.7 77 2.7 NE 22 28 12 15 1019.7 1019.3 0.0
19/12:30am 23.3 22.3 18.8 76 2.9 NE 22 28 12 15 1020.2 1019.8 0.0
19/12:00am 23.5 22.3 17.5 69 3.7 NE 20 26 11 14 1020.4 1020.0 0.0
 
Date/Time
EST
Temp
°C
App
Temp
°C
Dew
Point
Rel
Hum
%
Delta-T
°C
Wind Press
QNH
hPa
Press
MSL
hPa
Rain
since 9 am
mm
Dir
 
Spd
km/h
Gust
km/h
Spd
kts
Gust
kts
18/11:30pm 23.0 20.5 17.0 69 3.7 NNE 26 33 14 18 1020.6 1020.2 0.0
18/11:00pm 23.3 20.4 18.0 72 3.3 NE 30 39 16 21 1020.5 1020.1 0.0
18/10:30pm 22.4 19.4 18.6 79 2.4 NNE 32 37 17 20 1020.8 1020.4 0.0
18/10:00pm 22.7 20.0 18.5 77 2.6 NE 30 39 16 21 1020.9 1020.5 0.0
18/09:30pm 21.7 17.9 18.9 84 1.8 NE 37 44 20 24 1020.9 1020.5 0.0
18/09:00pm 21.9 18.4 19.5 86 1.5 ENE 37 44 20 24 1020.9 1020.5 0.0
18/08:30pm 22.5 18.9 19.3 82 2.0 NE 37 44 20 24 1020.7 1020.3 0.0
18/08:00pm 22.0 18.9 19.7 87 1.5 ENE 35 43 19 23 1020.6 1020.2 0.0
18/07:30pm 22.1 19.2 20.0 88 1.4 NE 35 43 19 23 1020.4 1020.0 0.0
18/07:00pm 22.5 18.8 19.9 85 1.7 ENE 39 46 21 25 1019.9 1019.5 0.0
18/06:30pm 22.7 19.4 19.3 81 2.2 ENE 35 43 19 23 1019.7 1019.3 0.0
18/06:00pm 22.9 21.1 19.5 81 2.2 NE 28 35 15 19 1019.7 1019.3 0.0
18/05:30pm 22.9 21.2 19.7 82 2.1 NE 28 32 15 17 1019.7 1019.3 0.0
18/05:00pm 23.3 21.8 19.5 79 2.4 NE 26 32 14 17 1019.8 1019.4 0.0
18/04:30pm 23.8 22.8 18.0 70 3.6 NE 20 28 11 15 1019.7 1019.3 0.0
18/04:00pm 24.2 23.5 18.2 69 3.8 NE 19 24 10 13 1019.5 1019.1 0.0
18/03:30pm 24.5 23.7 18.0 67 4.1 NE 19 24 10 13 1019.5 1019.1 0.0
18/03:00pm 24.6 23.9 18.3 68 4.0 NE 19 28 10 15 1019.5 1019.1 0.0
18/02:30pm 24.8 24.0 18.0 66 4.3 NE 19 24 10 13 1019.5 1019.1 0.0
18/02:00pm 25.0 24.3 18.7 68 4.0 NE 20 26 11 14 1019.5 1019.1 0.0
18/01:30pm 25.4 24.8 18.8 67 4.2 NE 20 26 11 14 1019.9 1019.5 0.0
18/01:00pm 25.9 25.3 18.8 65 4.5 NE 20 26 11 14 1020.2 1019.8 0.0
18/12:30pm 25.6 24.7 19.0 67 4.2 NE 22 28 12 15 1020.6 1020.2 0.0
18/12:00pm 25.9 25.2 18.6 64 4.7 NE 20 26 11 14 1021.2 1020.8 0.0
18/11:30am 25.3 23.6 18.2 64 4.5 ENE 24 28 13 15 1021.6 1021.3 0.0
18/11:00am 25.5 24.9 18.9 67 4.2 ENE 20 26 11 14 1022.3 1022.0 0.0
18/10:30am 25.7 25.0 18.6 65 4.5 NE 20 28 11 15 1022.5 1022.2 0.0
18/10:00am 25.6 24.1 18.5 65 4.5 ENE 24 30 13 16 1022.7 1022.4 0.0
18/09:30am 25.3 23.1 18.7 67 4.2 ENE 28 33 15 18 1022.7 1022.4 0.0
18/09:00am 25.1 22.3 18.1 65 4.4 ENE 30 33 16 18 1022.5 1022.2 1.0
18/08:30am 25.1 23.2 18.5 67 4.2 ENE 26 33 14 18 1022.6 1022.3 1.0
18/08:00am 24.9 22.1 18.3 66 4.2 ENE 30 33 16 18 1022.4 1022.1 1.0
18/07:30am 24.3 22.2 18.0 68 4.0 ENE 26 32 14 17 1022.1 1021.8 1.0
18/07:00am 24.0 20.8 17.3 66 4.2 ENE 30 37 16 20 1021.8 1021.5 1.0
18/06:30am 23.2 20.0 17.2 69 3.7 ENE 30 39 16 21 1021.3 1020.9 0.8
18/06:00am 23.1 19.9 17.3 70 3.6 ENE 30 35 16 19 1021.3 1020.9 0.8
18/05:30am 23.1 19.5 17.3 70 3.6 ENE 32 37 17 20 1021.1 1020.7 0.8
18/05:00am 22.9 19.3 17.1 70 3.6 ENE 32 35 17 19 1020.9 1020.5 0.8
18/04:30am 23.1 19.3 17.3 70 3.6 ENE 33 39 18 21 1021.0 1020.6 0.8
18/04:00am 23.0 19.2 17.2 70 3.6 ENE 33 37 18 20 1021.0 1020.6 0.8
18/03:30am 23.0 19.5 17.9 73 3.2 ENE 33 41 18 22 1020.9 1020.5 0.8
18/03:21am 23.0 19.6 18.1 74 3.1 ENE 33 41 18 22 1020.9 1020.5 0.8
18/03:00am 22.7 22.0 18.3 76 2.8 E 19 24 10 13 1021.1 1020.7 0.8
18/02:30am 22.8 19.4 16.8 69 3.7 NE 30 41 16 22 1021.3 1020.9 0.8
18/02:00am 22.0 17.3 18.6 81 2.1 ENE 41 48 22 26 1021.4 1021.0 0.8
18/01:48am 21.8 19.8 19.2 85 1.7 ENE 28 50 15 27 1021.4 1021.0 0.8
18/01:30am 20.7 18.0 18.5 87 1.4 ENE 30 41 16 22 1021.8 1021.5 0.8
18/01:00am 22.9 17.7 17.4 71 3.4 E 41 46 22 25 1021.5 1021.1 0.8
18/12:30am 22.5 17.1 19.1 81 2.2 ENE 46 52 25 28 1021.8 1021.5 0.8
18/12:00am 22.5 20.5 19.1 81 2.2 E 28 43 15 23 1022.2 1021.9 0.8
 
Date/Time
EST
Temp
°C
App
Temp
°C
Dew
Point
Rel
Hum
%
Delta-T
°C
Wind Press
QNH
hPa
Press
MSL
hPa
Rain
since 9 am
mm
Dir
 
Spd
km/h
Gust
km/h
Spd
kts
Gust
kts
17/11:30pm 22.4 22.0 19.4 83 1.9 E 20 24 11 13 1022.6 1022.3 0.8
17/11:00pm 22.1 20.2 19.3 84 1.8 E 28 33 15 18 1022.7 1022.4 0.8
17/10:30pm 21.8 18.6 18.6 82 2.0 E 33 39 18 21 1022.6 1022.3 0.8
17/10:00pm 22.4 18.6 18.2 77 2.6 E 35 39 19 21 1022.6 1022.3 0.8
17/09:30pm 21.6 19.3 19.3 87 1.5 E 30 37 16 20 1022.8 1022.5 0.8
17/09:00pm 21.6 19.8 19.5 88 1.3 E 28 52 15 28 1022.6 1022.3 0.8
17/08:57pm 22.0 21.9 19.9 88 1.4 E 20 43 11 23 1022.7 1022.4 0.8
17/08:30pm 21.2 22.1 18.4 84 1.8 E 11 15 6 8 1022.9 1022.6 0.6
17/08:00pm 20.8 21.0 18.6 87 1.4 SE 15 19 8 10 1022.7 1022.4 0.2
17/07:30pm 20.1 16.8 17.9 87 1.4 E 32 46 17 25 1022.7 1022.4 0.0
17/07:00pm 22.9 19.4 18.0 74 3.1 E 33 50 18 27 1021.7 1021.4 0.0
17/06:30pm 23.1 20.5 17.8 72 3.3 E 28 32 15 17 1021.7 1021.4 0.0
17/06:00pm 23.0 20.7 17.5 71 3.4 E 26 32 14 17 1021.5 1021.1 0.0
17/05:30pm 23.3 21.0 17.7 71 3.5 E 26 33 14 18 1021.4 1021.0 0.0
17/05:00pm 23.9 22.4 17.6 68 3.9 E 22 26 12 14 1021.2 1020.8 0.0
17/04:30pm 23.5 21.5 17.3 68 3.9 E 24 32 13 17 1021.0 1020.6 0.0
17/04:00pm 24.0 22.0 17.5 67 4.0 E 24 33 13 18 1020.7 1020.3 0.0
17/03:30pm 24.1 22.1 17.4 66 4.2 E 24 28 13 15 1020.8 1020.4 0.0
17/03:00pm 24.5 22.4 17.2 63 4.5 E 24 28 13 15 1020.9 1020.5 0.0
17/02:30pm 24.3 22.6 17.1 64 4.5 E 22 28 12 15 1020.9 1020.5 0.0
17/02:00pm 24.9 23.5 16.9 61 4.9 E 20 24 11 13 1021.1 1020.7 0.0
17/01:30pm 25.1 24.0 17.8 64 4.6 E 20 24 11 13 1021.4 1021.0 0.0
17/01:00pm 25.8 24.8 18.0 62 4.9 E 20 28 11 15 1021.6 1021.3 0.0
17/12:30pm 25.9 24.7 17.5 59 5.3 E 20 28 11 15 1022.1 1021.8 0.0
17/12:00pm 26.6 25.7 19.0 63 4.9 E 22 28 12 15 1022.6 1022.3 0.0
17/11:30am 25.6 23.6 18.3 64 4.6 ENE 26 28 14 15 1023.1 1022.7 0.0
17/11:00am 25.7 23.7 18.4 64 4.6 E 26 30 14 16 1023.5 1023.1 0.0
17/10:30am 25.5 23.7 17.9 63 4.8 E 24 30 13 16 1023.9 1023.5 0.0
17/10:00am 26.3 25.1 19.2 65 4.6 E 24 32 13 17 1024.2 1023.8 0.0
17/09:30am 26.3 24.8 19.4 66 4.5 E 26 30 14 16 1024.4 1024.0 0.0
17/09:00am 25.4 25.3 18.8 67 4.2 E 17 24 9 13 1024.6 1024.2 0.0
17/08:30am 25.1 25.7 18.5 67 4.2 E 13 15 7 8 1024.7 1024.3 0.0
17/08:00am 24.9 24.9 19.0 69 3.8 ENE 17 19 9 10 1024.2 1023.8 0.0
17/07:30am 24.0 23.5 18.6 72 3.4 ENE 19 22 10 12 1023.9 1023.5 0.0
17/07:00am 23.5 22.4 17.7 70 3.6 ENE 20 26 11 14 1023.5 1023.1 0.0
17/06:30am 21.8 20.8 18.0 79 2.4 ENE 20 26 11 14 1023.3 1022.9 0.0
17/06:00am 22.2 21.0 18.4 79 2.4 ENE 22 32 12 17 1023.1 1022.7 0.0
17/05:30am 22.3 21.4 17.7 75 2.9 E 19 22 10 12 1023.1 1022.7 0.0
17/05:00am 22.2 21.0 17.6 75 2.8 E 20 26 11 14 1022.7 1022.4 0.0
17/04:30am 22.2 21.0 17.6 75 2.9 E 20 26 11 14 1022.3 1022.0 0.0
17/04:00am 22.2 20.5 17.3 74 3.0 E 22 28 12 15 1022.2 1021.9 0.0
17/03:30am 22.2 20.5 17.1 73 3.1 E 22 28 12 15 1022.2 1021.9 0.0
17/03:00am 22.2 20.1 17.1 73 3.1 E 24 30 13 16 1022.1 1021.8 0.0
17/02:30am 22.2 20.1 17.1 73 3.1 E 24 30 13 16 1022.2 1021.9 0.0
17/02:00am 22.3 20.6 17.2 73 3.1 E 22 28 12 15 1022.4 1022.1 0.0
17/01:30am 22.4 20.1 17.5 74 3.0 E 26 30 14 16 1022.7 1022.4 0.0
17/01:00am 22.3 21.1 17.4 74 3.0 E 20 26 11 14 1023.1 1022.7 0.0
17/12:30am 22.3 20.6 17.2 73 3.1 E 22 30 12 16 1023.4 1023.0 0.0
17/12:00am 22.4 20.3 17.1 72 3.3 E 24 32 13 17 1023.6 1023.2 0.0
 
Date/Time
EST
Temp
°C
App
Temp
°C
Dew
Point
Rel
Hum
%
Delta-T
°C
Wind Press
QNH
hPa
Press
MSL
hPa
Rain
since 9 am
mm
Dir
 
Spd
km/h
Gust
km/h
Spd
kts
Gust
kts
16/11:30pm 22.3 20.0 16.6 70 3.5 E 24 30 13 16 1023.7 1023.3 0.0
16/11:00pm 22.4 20.1 16.7 70 3.5 E 24 32 13 17 1024.0 1023.6 0.0
16/10:30pm 22.5 19.4 16.5 69 3.7 E 28 33 15 18 1024.1 1023.7 0.0
16/10:00pm 22.5 19.7 17.2 72 3.3 E 28 35 15 19 1024.2 1023.8 0.0
16/09:30pm 22.5 20.0 17.0 71 3.4 E 26 30 14 16 1024.3 1023.9 0.0
16/09:00pm 22.6 20.9 17.1 71 3.4 E 22 26 12 14 1024.4 1024.0 0.0
16/08:30pm 22.5 21.2 17.2 72 3.3 E 20 26 11 14 1024.4 1024.0 0.0
16/08:00pm 22.7 21.4 17.2 71 3.4 E 20 24 11 13 1024.3 1023.9 0.0
16/07:30pm 22.6 21.6 17.5 73 3.2 E 19 24 10 13 1024.1 1023.7 0.0
16/07:00pm 22.6 21.6 17.5 73 3.2 E 19 22 10 12 1023.7 1023.3 0.0
16/06:30pm 22.6 22.0 17.5 73 3.2 E 17 20 9 11 1023.5 1023.1 0.0
16/06:00pm 22.5 21.0 17.6 74 3.0 E 22 26 12 14 1023.1 1022.7 0.0
16/05:30pm 22.9 21.8 17.4 71 3.4 ESE 19 22 10 12 1022.8 1022.5 0.0
16/05:00pm 23.0 22.2 17.0 69 3.7 ESE 17 20 9 11 1022.8 1022.5 0.0
16/04:30pm 23.3 22.4 16.8 67 4.0 ESE 17 20 9 11 1022.8 1022.5 0.0
16/04:00pm 23.4 22.8 16.7 66 4.1 ESE 15 20 8 11 1022.8 1022.5 0.0
16/03:30pm 23.8 23.6 16.6 64 4.4 SE 13 17 7 9 1022.8 1022.5 0.0
16/03:00pm 24.0 23.2 17.0 65 4.3 ESE 17 22 9 12 1022.9 1022.6 0.0
16/02:30pm 24.2 23.5 16.5 62 4.7 SE 15 20 8 11 1022.9 1022.6 0.0
16/02:00pm 24.6 23.9 16.3 60 5.1 ESE 15 19 8 10 1023.1 1022.7 0.0
16/01:30pm 24.9 23.9 16.6 60 5.1 ESE 17 22 9 12 1023.2 1022.8 0.0
16/01:00pm 25.2 24.8 17.1 60 5.0 ESE 15 19 8 10 1023.4 1023.0 0.0
16/12:30pm 25.1 24.3 17.0 60 5.0 ESE 17 22 9 12 1023.8 1023.4 0.0
16/12:00pm 25.6 24.8 17.0 59 5.3 ESE 17 20 9 11 1024.4 1024.0 0.0
16/11:30am 25.3 24.0 16.7 59 5.3 ESE 19 24 10 13 1025.0 1024.6 0.0

Other Formats:

Comma delimited format used in spreadsheet applications
http://www.bom.gov.au/fwo/IDQ60801/IDQ60801.94594.axf

JavaScript Object Notation format (JSON) in row-major order
http://www.bom.gov.au/fwo/IDQ60801/IDQ60801.94594.json